sensor_id;sensor_type;location;lat;lon;timestamp;pressure;altitude;pressure_sealevel;temperature
19040;BMP180;9652;49.014;12.052;2023-07-28T00:01:14;97186.00;;;19.80
19040;BMP180;9652;49.014;12.052;2023-07-28T00:03:41;97185.00;;;19.80
19040;BMP180;9652;49.014;12.052;2023-07-28T00:06:08;97189.00;;;19.80
19040;BMP180;9652;49.014;12.052;2023-07-28T00:08:35;97191.00;;;19.80
19040;BMP180;9652;49.014;12.052;2023-07-28T00:11:03;97194.00;;;19.80
19040;BMP180;9652;49.014;12.052;2023-07-28T00:13:30;97192.00;;;19.80
19040;BMP180;9652;49.014;12.052;2023-07-28T00:15:57;97191.00;;;19.80
19040;BMP180;9652;49.014;12.052;2023-07-28T00:18:25;97196.00;;;19.80
19040;BMP180;9652;49.014;12.052;2023-07-28T00:20:52;97200.00;;;19.80
19040;BMP180;9652;49.014;12.052;2023-07-28T00:23:19;97196.00;;;19.80
19040;BMP180;9652;49.014;12.052;2023-07-28T00:25:46;97211.00;;;19.80
19040;BMP180;9652;49.014;12.052;2023-07-28T00:28:13;97207.00;;;19.80
19040;BMP180;9652;49.014;12.052;2023-07-28T00:30:40;97203.00;;;19.80
19040;BMP180;9652;49.014;12.052;2023-07-28T00:33:08;97201.00;;;19.80
19040;BMP180;9652;49.014;12.052;2023-07-28T00:35:38;97202.00;;;19.80
19040;BMP180;9652;49.014;12.052;2023-07-28T00:38:05;97192.00;;;19.80
19040;BMP180;9652;49.014;12.052;2023-07-28T00:40:32;97194.00;;;19.80
19040;BMP180;9652;49.014;12.052;2023-07-28T00:42:59;97188.00;;;19.80
19040;BMP180;9652;49.014;12.052;2023-07-28T00:45:28;97191.00;;;19.70
19040;BMP180;9652;49.014;12.052;2023-07-28T00:47:56;97186.00;;;19.70
19040;BMP180;9652;49.014;12.052;2023-07-28T00:50:25;97190.00;;;19.70
19040;BMP180;9652;49.014;12.052;2023-07-28T00:52:55;97184.00;;;19.70
19040;BMP180;9652;49.014;12.052;2023-07-28T00:55:23;97181.00;;;19.70
19040;BMP180;9652;49.014;12.052;2023-07-28T00:57:50;97172.00;;;19.70
19040;BMP180;9652;49.014;12.052;2023-07-28T01:00:17;97169.00;;;19.70
19040;BMP180;9652;49.014;12.052;2023-07-28T01:02:44;97171.00;;;19.60
19040;BMP180;9652;49.014;12.052;2023-07-28T01:05:12;97164.00;;;19.60
19040;BMP180;9652;49.014;12.052;2023-07-28T01:07:57;97157.00;;;19.60
19040;BMP180;9652;49.014;12.052;2023-07-28T01:10:31;97166.00;;;19.60
19040;BMP180;9652;49.014;12.052;2023-07-28T01:12:58;97167.00;;;19.60
19040;BMP180;9652;49.014;12.052;2023-07-28T01:15:26;97152.00;;;19.60
19040;BMP180;9652;49.014;12.052;2023-07-28T01:17:53;97154.00;;;19.50
19040;BMP180;9652;49.014;12.052;2023-07-28T01:20:24;97155.00;;;19.50
19040;BMP180;9652;49.014;12.052;2023-07-28T01:23:08;97155.00;;;19.50
19040;BMP180;9652;49.014;12.052;2023-07-28T01:25:50;97149.00;;;19.40
19040;BMP180;9652;49.014;12.052;2023-07-28T01:28:23;97150.00;;;19.50
19040;BMP180;9652;49.014;12.052;2023-07-28T01:30:50;97140.00;;;19.40
19040;BMP180;9652;49.014;12.052;2023-07-28T01:33:18;97152.00;;;19.40
19040;BMP180;9652;49.014;12.052;2023-07-28T01:35:45;97148.00;;;19.40
19040;BMP180;9652;49.014;12.052;2023-07-28T01:38:12;97140.00;;;19.40
19040;BMP180;9652;49.014;12.052;2023-07-28T01:40:39;97138.00;;;19.40
19040;BMP180;9652;49.014;12.052;2023-07-28T01:43:07;97135.00;;;19.40
19040;BMP180;9652;49.014;12.052;2023-07-28T01:45:35;97132.00;;;19.40
19040;BMP180;9652;49.014;12.052;2023-07-28T01:48:02;97126.00;;;19.40
19040;BMP180;9652;49.014;12.052;2023-07-28T01:50:30;97130.00;;;19.40
19040;BMP180;9652;49.014;12.052;2023-07-28T01:52:58;97140.00;;;19.40
19040;BMP180;9652;49.014;12.052;2023-07-28T01:55:26;97111.00;;;19.40
19040;BMP180;9652;49.014;12.052;2023-07-28T01:57:56;97138.00;;;19.40
19040;BMP180;9652;49.014;12.052;2023-07-28T02:00:24;97135.00;;;19.30
19040;BMP180;9652;49.014;12.052;2023-07-28T02:02:53;97133.00;;;19.30
19040;BMP180;9652;49.014;12.052;2023-07-28T02:05:21;97136.00;;;19.30
19040;BMP180;9652;49.014;12.052;2023-07-28T02:07:48;97120.00;;;19.30
19040;BMP180;9652;49.014;12.052;2023-07-28T02:10:15;97139.00;;;19.30
19040;BMP180;9652;49.014;12.052;2023-07-28T02:12:42;97142.00;;;19.30
19040;BMP180;9652;49.014;12.052;2023-07-28T02:15:11;97141.00;;;19.30
19040;BMP180;9652;49.014;12.052;2023-07-28T02:17:38;97136.00;;;19.30
19040;BMP180;9652;49.014;12.052;2023-07-28T02:20:08;97138.00;;;19.30
19040;BMP180;9652;49.014;12.052;2023-07-28T02:22:36;97140.00;;;19.30
19040;BMP180;9652;49.014;12.052;2023-07-28T02:25:04;97140.00;;;19.30
19040;BMP180;9652;49.014;12.052;2023-07-28T02:27:31;97146.00;;;19.30
19040;BMP180;9652;49.014;12.052;2023-07-28T02:29:59;97141.00;;;19.30
19040;BMP180;9652;49.014;12.052;2023-07-28T02:32:27;97146.00;;;19.30
19040;BMP180;9652;49.014;12.052;2023-07-28T02:34:54;97131.00;;;19.30
19040;BMP180;9652;49.014;12.052;2023-07-28T02:37:24;97138.00;;;19.30
19040;BMP180;9652;49.014;12.052;2023-07-28T02:39:51;97126.00;;;19.30
19040;BMP180;9652;49.014;12.052;2023-07-28T02:42:18;97131.00;;;19.30
19040;BMP180;9652;49.014;12.052;2023-07-28T02:44:45;97126.00;;;19.30
19040;BMP180;9652;49.014;12.052;2023-07-28T02:47:12;97124.00;;;19.30
19040;BMP180;9652;49.014;12.052;2023-07-28T02:49:41;97131.00;;;19.30
19040;BMP180;9652;49.014;12.052;2023-07-28T02:52:08;97130.00;;;19.30
19040;BMP180;9652;49.014;12.052;2023-07-28T02:54:37;97125.00;;;19.00
19040;BMP180;9652;49.014;12.052;2023-07-28T02:57:05;97123.00;;;19.30
19040;BMP180;9652;49.014;12.052;2023-07-28T02:59:32;97130.00;;;19.30
19040;BMP180;9652;49.014;12.052;2023-07-28T03:01:59;97130.00;;;19.30
19040;BMP180;9652;49.014;12.052;2023-07-28T03:04:26;97133.00;;;19.20
19040;BMP180;9652;49.014;12.052;2023-07-28T03:07:12;97123.00;;;19.20
19040;BMP180;9652;49.014;12.052;2023-07-28T03:09:41;97137.00;;;19.20
19040;BMP180;9652;49.014;12.052;2023-07-28T03:12:08;97140.00;;;19.20
19040;BMP180;9652;49.014;12.052;2023-07-28T03:14:36;97143.00;;;19.20
19040;BMP180;9652;49.014;12.052;2023-07-28T03:17:04;97142.00;;;19.20
19040;BMP180;9652;49.014;12.052;2023-07-28T03:19:31;97135.00;;;19.20
19040;BMP180;9652;49.014;12.052;2023-07-28T03:21:58;97129.00;;;19.20
19040;BMP180;9652;49.014;12.052;2023-07-28T03:24:25;97129.00;;;19.20
19040;BMP180;9652;49.014;12.052;2023-07-28T03:26:53;97130.00;;;19.20
19040;BMP180;9652;49.014;12.052;2023-07-28T03:29:21;97127.00;;;19.20
19040;BMP180;9652;49.014;12.052;2023-07-28T03:31:48;97138.00;;;19.30
19040;BMP180;9652;49.014;12.052;2023-07-28T03:34:17;97138.00;;;19.30
19040;BMP180;9652;49.014;12.052;2023-07-28T03:36:44;97136.00;;;19.30
19040;BMP180;9652;49.014;12.052;2023-07-28T03:39:11;97127.00;;;19.30
19040;BMP180;9652;49.014;12.052;2023-07-28T03:41:39;97124.00;;;19.30
19040;BMP180;9652;49.014;12.052;2023-07-28T03:44:08;97124.00;;;19.30
19040;BMP180;9652;49.014;12.052;2023-07-28T03:46:35;97121.00;;;19.20
19040;BMP180;9652;49.014;12.052;2023-07-28T03:49:02;97127.00;;;19.20
19040;BMP180;9652;49.014;12.052;2023-07-28T03:51:29;97133.00;;;19.20
19040;BMP180;9652;49.014;12.052;2023-07-28T03:53:56;97096.00;;;19.20
19040;BMP180;9652;49.014;12.052;2023-07-28T03:56:23;97130.00;;;19.20
19040;BMP180;9652;49.014;12.052;2023-07-28T03:58:50;97132.00;;;19.10
19040;BMP180;9652;49.014;12.052;2023-07-28T04:01:20;97133.00;;;19.10
19040;BMP180;9652;49.014;12.052;2023-07-28T04:03:48;97140.00;;;19.10
19040;BMP180;9652;49.014;12.052;2023-07-28T04:06:15;97138.00;;;19.10
19040;BMP180;9652;49.014;12.052;2023-07-28T04:08:43;97125.00;;;19.00
19040;BMP180;9652;49.014;12.052;2023-07-28T04:11:10;97133.00;;;19.00
19040;BMP180;9652;49.014;12.052;2023-07-28T04:13:38;97131.00;;;19.00
19040;BMP180;9652;49.014;12.052;2023-07-28T04:16:05;97143.00;;;19.00
19040;BMP180;9652;49.014;12.052;2023-07-28T04:18:33;97143.00;;;18.90
19040;BMP180;9652;49.014;12.052;2023-07-28T04:21:00;97141.00;;;18.90
19040;BMP180;9652;49.014;12.052;2023-07-28T04:23:27;97145.00;;;18.90
19040;BMP180;9652;49.014;12.052;2023-07-28T04:25:54;97145.00;;;18.90
19040;BMP180;9652;49.014;12.052;2023-07-28T04:28:22;97133.00;;;18.90
19040;BMP180;9652;49.014;12.052;2023-07-28T04:30:50;97151.00;;;18.90
19040;BMP180;9652;49.014;12.052;2023-07-28T04:33:42;97160.00;;;18.90
19040;BMP180;9652;49.014;12.052;2023-07-28T04:36:10;97152.00;;;18.90
19040;BMP180;9652;49.014;12.052;2023-07-28T04:38:37;97152.00;;;18.90
19040;BMP180;9652;49.014;12.052;2023-07-28T04:41:05;97155.00;;;18.90
19040;BMP180;9652;49.014;12.052;2023-07-28T04:43:51;97143.00;;;18.90
19040;BMP180;9652;49.014;12.052;2023-07-28T04:46:19;97152.00;;;18.90
19040;BMP180;9652;49.014;12.052;2023-07-28T04:48:54;97151.00;;;18.90
19040;BMP180;9652;49.014;12.052;2023-07-28T04:51:54;97143.00;;;18.90
19040;BMP180;9652;49.014;12.052;2023-07-28T04:54:40;97144.00;;;18.90
19040;BMP180;9652;49.014;12.052;2023-07-28T04:57:07;97136.00;;;19.00
19040;BMP180;9652;49.014;12.052;2023-07-28T04:59:36;97143.00;;;19.10
19040;BMP180;9652;49.014;12.052;2023-07-28T05:02:04;97142.00;;;19.10
19040;BMP180;9652;49.014;12.052;2023-07-28T05:04:33;97141.00;;;19.20
19040;BMP180;9652;49.014;12.052;2023-07-28T05:07:02;97147.00;;;19.20
19040;BMP180;9652;49.014;12.052;2023-07-28T05:09:30;97149.00;;;19.30
19040;BMP180;9652;49.014;12.052;2023-07-28T05:11:57;97138.00;;;19.30
19040;BMP180;9652;49.014;12.052;2023-07-28T05:14:25;97151.00;;;19.40
19040;BMP180;9652;49.014;12.052;2023-07-28T05:16:52;97151.00;;;19.50
19040;BMP180;9652;49.014;12.052;2023-07-28T05:19:27;97139.00;;;19.60
19040;BMP180;9652;49.014;12.052;2023-07-28T05:22:28;97152.00;;;19.40
19040;BMP180;9652;49.014;12.052;2023-07-28T05:24:56;97155.00;;;19.70
19040;BMP180;9652;49.014;12.052;2023-07-28T05:27:27;97163.00;;;19.80
19040;BMP180;9652;49.014;12.052;2023-07-28T05:29:54;97171.00;;;19.90
19040;BMP180;9652;49.014;12.052;2023-07-28T05:32:21;97162.00;;;19.90
19040;BMP180;9652;49.014;12.052;2023-07-28T05:35:10;97168.00;;;20.00
19040;BMP180;9652;49.014;12.052;2023-07-28T05:37:39;97168.00;;;20.00
19040;BMP180;9652;49.014;12.052;2023-07-28T05:40:08;97175.00;;;20.10
19040;BMP180;9652;49.014;12.052;2023-07-28T05:42:36;97163.00;;;20.20
19040;BMP180;9652;49.014;12.052;2023-07-28T05:45:05;97166.00;;;20.30
19040;BMP180;9652;49.014;12.052;2023-07-28T05:47:32;97157.00;;;20.30
19040;BMP180;9652;49.014;12.052;2023-07-28T05:50:00;97146.00;;;20.40
19040;BMP180;9652;49.014;12.052;2023-07-28T05:52:27;97162.00;;;20.40
19040;BMP180;9652;49.014;12.052;2023-07-28T05:54:55;97171.00;;;20.40
19040;BMP180;9652;49.014;12.052;2023-07-28T05:57:23;97170.00;;;20.50
19040;BMP180;9652;49.014;12.052;2023-07-28T05:59:50;97168.00;;;20.50
19040;BMP180;9652;49.014;12.052;2023-07-28T06:02:17;97159.00;;;20.60
19040;BMP180;9652;49.014;12.052;2023-07-28T06:04:50;97168.00;;;20.70
19040;BMP180;9652;49.014;12.052;2023-07-28T06:07:17;97173.00;;;20.80
19040;BMP180;9652;49.014;12.052;2023-07-28T06:09:45;97183.00;;;20.90
19040;BMP180;9652;49.014;12.052;2023-07-28T06:12:14;97177.00;;;21.00
19040;BMP180;9652;49.014;12.052;2023-07-28T06:14:42;97175.00;;;21.10
19040;BMP180;9652;49.014;12.052;2023-07-28T06:17:11;97172.00;;;21.10
19040;BMP180;9652;49.014;12.052;2023-07-28T06:19:38;97181.00;;;21.20
19040;BMP180;9652;49.014;12.052;2023-07-28T06:22:05;97181.00;;;21.20
19040;BMP180;9652;49.014;12.052;2023-07-28T06:24:37;97161.00;;;21.30
19040;BMP180;9652;49.014;12.052;2023-07-28T06:27:05;97195.00;;;21.40
19040;BMP180;9652;49.014;12.052;2023-07-28T06:29:38;97191.00;;;21.40
19040;BMP180;9652;49.014;12.052;2023-07-28T06:32:06;97195.00;;;21.50
19040;BMP180;9652;49.014;12.052;2023-07-28T06:34:34;97201.00;;;21.60
19040;BMP180;9652;49.014;12.052;2023-07-28T06:37:01;97200.00;;;21.60
19040;BMP180;9652;49.014;12.052;2023-07-28T06:39:28;97229.00;;;21.70
19040;BMP180;9652;49.014;12.052;2023-07-28T06:41:56;97205.00;;;21.70
19040;BMP180;9652;49.014;12.052;2023-07-28T06:44:24;97192.00;;;21.80
19040;BMP180;9652;49.014;12.052;2023-07-28T06:46:53;97216.00;;;21.80
19040;BMP180;9652;49.014;12.052;2023-07-28T06:49:20;97204.00;;;21.90
19040;BMP180;9652;49.014;12.052;2023-07-28T06:51:47;97213.00;;;21.90
19040;BMP180;9652;49.014;12.052;2023-07-28T06:54:14;97218.00;;;22.00
19040;BMP180;9652;49.014;12.052;2023-07-28T06:56:41;97225.00;;;21.80
19040;BMP180;9652;49.014;12.052;2023-07-28T06:59:09;97223.00;;;22.10
19040;BMP180;9652;49.014;12.052;2023-07-28T07:01:37;97229.00;;;22.20
19040;BMP180;9652;49.014;12.052;2023-07-28T07:04:06;97220.00;;;22.20
19040;BMP180;9652;49.014;12.052;2023-07-28T07:06:33;97214.00;;;22.20
19040;BMP180;9652;49.014;12.052;2023-07-28T07:09:00;97242.00;;;22.20
19040;BMP180;9652;49.014;12.052;2023-07-28T07:11:28;97218.00;;;22.30
19040;BMP180;9652;49.014;12.052;2023-07-28T07:13:55;97228.00;;;22.30
19040;BMP180;9652;49.014;12.052;2023-07-28T07:16:23;97213.00;;;22.40
19040;BMP180;9652;49.014;12.052;2023-07-28T07:18:51;97197.00;;;22.40
19040;BMP180;9652;49.014;12.052;2023-07-28T07:21:20;97200.00;;;22.50
19040;BMP180;9652;49.014;12.052;2023-07-28T07:23:47;97209.00;;;22.60
19040;BMP180;9652;49.014;12.052;2023-07-28T07:26:26;97189.00;;;22.70
19040;BMP180;9652;49.014;12.052;2023-07-28T07:28:53;97228.00;;;22.80
19040;BMP180;9652;49.014;12.052;2023-07-28T07:31:20;97222.00;;;22.80
19040;BMP180;9652;49.014;12.052;2023-07-28T07:33:47;97215.00;;;22.90
19040;BMP180;9652;49.014;12.052;2023-07-28T07:36:15;97215.00;;;23.00
19040;BMP180;9652;49.014;12.052;2023-07-28T07:38:44;97229.00;;;23.10
19040;BMP180;9652;49.014;12.052;2023-07-28T07:41:12;97212.00;;;23.20
19040;BMP180;9652;49.014;12.052;2023-07-28T07:43:41;97226.00;;;23.30
19040;BMP180;9652;49.014;12.052;2023-07-28T07:46:08;97232.00;;;23.40
19040;BMP180;9652;49.014;12.052;2023-07-28T07:48:36;97238.00;;;23.60
19040;BMP180;9652;49.014;12.052;2023-07-28T07:51:03;97238.00;;;23.70
19040;BMP180;9652;49.014;12.052;2023-07-28T07:53:30;97230.00;;;23.80
19040;BMP180;9652;49.014;12.052;2023-07-28T07:55:59;97227.00;;;24.00
19040;BMP180;9652;49.014;12.052;2023-07-28T07:58:26;97225.00;;;24.10
19040;BMP180;9652;49.014;12.052;2023-07-28T08:00:54;97229.00;;;24.20
19040;BMP180;9652;49.014;12.052;2023-07-28T08:03:21;97221.00;;;24.30
19040;BMP180;9652;49.014;12.052;2023-07-28T08:05:50;97240.00;;;24.40
19040;BMP180;9652;49.014;12.052;2023-07-28T08:08:18;97237.00;;;24.60
19040;BMP180;9652;49.014;12.052;2023-07-28T08:10:45;97238.00;;;24.70
19040;BMP180;9652;49.014;12.052;2023-07-28T08:13:15;97237.00;;;24.80
19040;BMP180;9652;49.014;12.052;2023-07-28T08:15:43;97222.00;;;24.90
19040;BMP180;9652;49.014;12.052;2023-07-28T08:18:11;97234.00;;;25.10
19040;BMP180;9652;49.014;12.052;2023-07-28T08:20:39;97245.00;;;25.20
19040;BMP180;9652;49.014;12.052;2023-07-28T08:23:06;97243.00;;;25.30
19040;BMP180;9652;49.014;12.052;2023-07-28T08:25:33;97215.00;;;25.40
19040;BMP180;9652;49.014;12.052;2023-07-28T08:28:01;97245.00;;;25.40
19040;BMP180;9652;49.014;12.052;2023-07-28T08:30:29;97268.00;;;25.50
19040;BMP180;9652;49.014;12.052;2023-07-28T08:32:57;97284.00;;;25.50
19040;BMP180;9652;49.014;12.052;2023-07-28T08:35:24;97270.00;;;25.50
19040;BMP180;9652;49.014;12.052;2023-07-28T08:37:51;97270.00;;;25.60
19040;BMP180;9652;49.014;12.052;2023-07-28T08:40:19;97276.00;;;25.60
19040;BMP180;9652;49.014;12.052;2023-07-28T08:42:46;97238.00;;;25.60
19040;BMP180;9652;49.014;12.052;2023-07-28T08:45:13;97289.00;;;25.60
19040;BMP180;9652;49.014;12.052;2023-07-28T08:47:42;97292.00;;;25.70
19040;BMP180;9652;49.014;12.052;2023-07-28T08:50:10;97290.00;;;25.70
19040;BMP180;9652;49.014;12.052;2023-07-28T08:52:37;97301.00;;;25.80
19040;BMP180;9652;49.014;12.052;2023-07-28T08:55:05;97295.00;;;25.80
19040;BMP180;9652;49.014;12.052;2023-07-28T08:57:32;97298.00;;;25.80
19040;BMP180;9652;49.014;12.052;2023-07-28T09:00:06;97304.00;;;25.70
19040;BMP180;9652;49.014;12.052;2023-07-28T09:02:33;97303.00;;;25.70
19040;BMP180;9652;49.014;12.052;2023-07-28T09:05:03;97302.00;;;25.60
19040;BMP180;9652;49.014;12.052;2023-07-28T09:07:34;97303.00;;;25.60
19040;BMP180;9652;49.014;12.052;2023-07-28T09:10:03;97288.00;;;25.50
19040;BMP180;9652;49.014;12.052;2023-07-28T09:12:31;97313.00;;;25.50
19040;BMP180;9652;49.014;12.052;2023-07-28T09:14:59;97315.00;;;25.50
19040;BMP180;9652;49.014;12.052;2023-07-28T09:17:27;97319.00;;;25.40
19040;BMP180;9652;49.014;12.052;2023-07-28T09:19:59;97323.00;;;25.30
19040;BMP180;9652;49.014;12.052;2023-07-28T09:22:33;97317.00;;;25.20
19040;BMP180;9652;49.014;12.052;2023-07-28T09:25:12;97321.00;;;25.20
19040;BMP180;9652;49.014;12.052;2023-07-28T09:27:41;97324.00;;;25.10
19040;BMP180;9652;49.014;12.052;2023-07-28T09:30:09;97319.00;;;25.10
19040;BMP180;9652;49.014;12.052;2023-07-28T09:32:47;97327.00;;;25.00
19040;BMP180;9652;49.014;12.052;2023-07-28T09:35:17;97322.00;;;25.10
19040;BMP180;9652;49.014;12.052;2023-07-28T09:37:49;97325.00;;;25.10
19040;BMP180;9652;49.014;12.052;2023-07-28T09:40:20;97335.00;;;25.10
19040;BMP180;9652;49.014;12.052;2023-07-28T09:42:50;97328.00;;;25.10
19040;BMP180;9652;49.014;12.052;2023-07-28T09:45:21;97333.00;;;25.10
19040;BMP180;9652;49.014;12.052;2023-07-28T09:47:55;97334.00;;;25.00
19040;BMP180;9652;49.014;12.052;2023-07-28T09:50:28;97328.00;;;24.90
19040;BMP180;9652;49.014;12.052;2023-07-28T09:53:03;97316.00;;;24.80
19040;BMP180;9652;49.014;12.052;2023-07-28T09:55:30;97334.00;;;24.80
19040;BMP180;9652;49.014;12.052;2023-07-28T09:58:01;97322.00;;;24.80
19040;BMP180;9652;49.014;12.052;2023-07-28T10:00:33;97331.00;;;24.70
19040;BMP180;9652;49.014;12.052;2023-07-28T10:03:02;97326.00;;;24.70
19040;BMP180;9652;49.014;12.052;2023-07-28T10:05:30;97323.00;;;24.70
19040;BMP180;9652;49.014;12.052;2023-07-28T10:08:01;97313.00;;;24.70
19040;BMP180;9652;49.014;12.052;2023-07-28T10:10:29;97317.00;;;24.80
19040;BMP180;9652;49.014;12.052;2023-07-28T10:12:58;97312.00;;;24.90
19040;BMP180;9652;49.014;12.052;2023-07-28T10:15:30;97288.00;;;25.10
19040;BMP180;9652;49.014;12.052;2023-07-28T10:17:58;97323.00;;;25.20
19040;BMP180;9652;49.014;12.052;2023-07-28T10:20:34;97313.00;;;25.40
19040;BMP180;9652;49.014;12.052;2023-07-28T10:23:11;97316.00;;;25.60
19040;BMP180;9652;49.014;12.052;2023-07-28T10:25:40;97324.00;;;25.80
19040;BMP180;9652;49.014;12.052;2023-07-28T10:28:25;97310.00;;;25.90
19040;BMP180;9652;49.014;12.052;2023-07-28T10:30:54;97313.00;;;25.90
19040;BMP180;9652;49.014;12.052;2023-07-28T10:33:30;97316.00;;;26.20
19040;BMP180;9652;49.014;12.052;2023-07-28T10:35:59;97316.00;;;26.50
19040;BMP180;9652;49.014;12.052;2023-07-28T10:38:32;97321.00;;;26.70
19040;BMP180;9652;49.014;12.052;2023-07-28T10:41:08;97314.00;;;26.80
19040;BMP180;9652;49.014;12.052;2023-07-28T10:43:36;97323.00;;;26.90
19040;BMP180;9652;49.014;12.052;2023-07-28T10:46:05;97315.00;;;26.90
19040;BMP180;9652;49.014;12.052;2023-07-28T10:48:35;97322.00;;;27.00
19040;BMP180;9652;49.014;12.052;2023-07-28T10:51:03;97312.00;;;26.90
19040;BMP180;9652;49.014;12.052;2023-07-28T10:53:33;97325.00;;;26.90
19040;BMP180;9652;49.014;12.052;2023-07-28T10:56:04;97321.00;;;26.90
19040;BMP180;9652;49.014;12.052;2023-07-28T10:58:34;97317.00;;;26.90
19040;BMP180;9652;49.014;12.052;2023-07-28T11:01:02;97323.00;;;27.00
19040;BMP180;9652;49.014;12.052;2023-07-28T11:03:29;97327.00;;;27.10
19040;BMP180;9652;49.014;12.052;2023-07-28T11:05:57;97322.00;;;27.20
19040;BMP180;9652;49.014;12.052;2023-07-28T11:08:24;97319.00;;;27.20
19040;BMP180;9652;49.014;12.052;2023-07-28T11:10:53;97314.00;;;27.30
19040;BMP180;9652;49.014;12.052;2023-07-28T11:13:21;97317.00;;;27.40
19040;BMP180;9652;49.014;12.052;2023-07-28T11:15:51;97326.00;;;27.40
19040;BMP180;9652;49.014;12.052;2023-07-28T11:18:18;97316.00;;;27.50
19040;BMP180;9652;49.014;12.052;2023-07-28T11:20:45;97323.00;;;27.60
19040;BMP180;9652;49.014;12.052;2023-07-28T11:23:14;97323.00;;;27.60
19040;BMP180;9652;49.014;12.052;2023-07-28T11:25:44;97319.00;;;27.70
19040;BMP180;9652;49.014;12.052;2023-07-28T11:28:14;97318.00;;;27.80
19040;BMP180;9652;49.014;12.052;2023-07-28T11:30:42;97321.00;;;27.80
19040;BMP180;9652;49.014;12.052;2023-07-28T11:33:10;97312.00;;;27.80
19040;BMP180;9652;49.014;12.052;2023-07-28T11:35:44;97307.00;;;27.80
19040;BMP180;9652;49.014;12.052;2023-07-28T11:38:14;97310.00;;;27.80
19040;BMP180;9652;49.014;12.052;2023-07-28T11:40:41;97309.00;;;27.60
19040;BMP180;9652;49.014;12.052;2023-07-28T11:43:09;97313.00;;;27.60
19040;BMP180;9652;49.014;12.052;2023-07-28T11:45:38;97315.00;;;27.80
19040;BMP180;9652;49.014;12.052;2023-07-28T11:48:07;97317.00;;;27.80
19040;BMP180;9652;49.014;12.052;2023-07-28T11:50:39;97311.00;;;27.90
19040;BMP180;9652;49.014;12.052;2023-07-28T11:53:08;97297.00;;;28.00
19040;BMP180;9652;49.014;12.052;2023-07-28T11:55:38;97312.00;;;28.10
19040;BMP180;9652;49.014;12.052;2023-07-28T11:58:06;97310.00;;;28.20
19040;BMP180;9652;49.014;12.052;2023-07-28T12:00:36;97310.00;;;28.30
19040;BMP180;9652;49.014;12.052;2023-07-28T12:03:08;97302.00;;;28.40
19040;BMP180;9652;49.014;12.052;2023-07-28T12:05:41;97308.00;;;28.40
19040;BMP180;9652;49.014;12.052;2023-07-28T12:08:09;97314.00;;;28.60
19040;BMP180;9652;49.014;12.052;2023-07-28T12:10:37;97318.00;;;28.70
19040;BMP180;9652;49.014;12.052;2023-07-28T12:13:06;97309.00;;;28.70
19040;BMP180;9652;49.014;12.052;2023-07-28T12:15:34;97307.00;;;28.80
19040;BMP180;9652;49.014;12.052;2023-07-28T12:18:09;97311.00;;;28.80
19040;BMP180;9652;49.014;12.052;2023-07-28T12:20:41;97299.00;;;28.90
19040;BMP180;9652;49.014;12.052;2023-07-28T12:23:14;97308.00;;;29.00
19040;BMP180;9652;49.014;12.052;2023-07-28T12:25:42;97299.00;;;29.10
19040;BMP180;9652;49.014;12.052;2023-07-28T12:28:10;97301.00;;;29.10
19040;BMP180;9652;49.014;12.052;2023-07-28T12:30:38;97302.00;;;29.20
19040;BMP180;9652;49.014;12.052;2023-07-28T12:33:06;97302.00;;;29.30
19040;BMP180;9652;49.014;12.052;2023-07-28T12:35:34;97307.00;;;29.30
19040;BMP180;9652;49.014;12.052;2023-07-28T12:38:03;97308.00;;;29.30
19040;BMP180;9652;49.014;12.052;2023-07-28T12:40:32;97306.00;;;29.30
19040;BMP180;9652;49.014;12.052;2023-07-28T12:43:02;97310.00;;;29.20
19040;BMP180;9652;49.014;12.052;2023-07-28T12:45:30;97318.00;;;29.20
19040;BMP180;9652;49.014;12.052;2023-07-28T12:47:57;97301.00;;;29.10
19040;BMP180;9652;49.014;12.052;2023-07-28T12:50:26;97320.00;;;29.10
19040;BMP180;9652;49.014;12.052;2023-07-28T12:52:53;97319.00;;;29.00
19040;BMP180;9652;49.014;12.052;2023-07-28T12:55:20;97310.00;;;29.00
19040;BMP180;9652;49.014;12.052;2023-07-28T12:57:47;97321.00;;;29.00
19040;BMP180;9652;49.014;12.052;2023-07-28T13:00:15;97326.00;;;29.00
19040;BMP180;9652;49.014;12.052;2023-07-28T13:02:44;97332.00;;;29.10
19040;BMP180;9652;49.014;12.052;2023-07-28T13:05:14;97340.00;;;29.20
19040;BMP180;9652;49.014;12.052;2023-07-28T13:07:44;97330.00;;;29.30
19040;BMP180;9652;49.014;12.052;2023-07-28T13:10:11;97334.00;;;29.40
19040;BMP180;9652;49.014;12.052;2023-07-28T13:12:38;97341.00;;;29.40
19040;BMP180;9652;49.014;12.052;2023-07-28T13:15:07;97330.00;;;29.40
19040;BMP180;9652;49.014;12.052;2023-07-28T13:17:34;97341.00;;;29.40
19040;BMP180;9652;49.014;12.052;2023-07-28T13:20:01;97345.00;;;29.30
19040;BMP180;9652;49.014;12.052;2023-07-28T13:22:29;97334.00;;;29.30
19040;BMP180;9652;49.014;12.052;2023-07-28T13:24:57;97336.00;;;29.30
19040;BMP180;9652;49.014;12.052;2023-07-28T13:27:24;97344.00;;;29.40
19040;BMP180;9652;49.014;12.052;2023-07-28T13:29:51;97336.00;;;29.50
19040;BMP180;9652;49.014;12.052;2023-07-28T13:32:25;97336.00;;;29.60
19040;BMP180;9652;49.014;12.052;2023-07-28T13:34:52;97342.00;;;29.80
19040;BMP180;9652;49.014;12.052;2023-07-28T13:37:19;97328.00;;;30.00
19040;BMP180;9652;49.014;12.052;2023-07-28T13:39:46;97324.00;;;30.20
19040;BMP180;9652;49.014;12.052;2023-07-28T13:42:15;97332.00;;;30.30
19040;BMP180;9652;49.014;12.052;2023-07-28T13:44:42;97339.00;;;30.30
19040;BMP180;9652;49.014;12.052;2023-07-28T13:47:09;97328.00;;;30.20
19040;BMP180;9652;49.014;12.052;2023-07-28T13:49:36;97328.00;;;30.10
19040;BMP180;9652;49.014;12.052;2023-07-28T13:52:05;97337.00;;;30.10
19040;BMP180;9652;49.014;12.052;2023-07-28T13:54:33;97330.00;;;30.10
19040;BMP180;9652;49.014;12.052;2023-07-28T13:57:00;97329.00;;;30.10
19040;BMP180;9652;49.014;12.052;2023-07-28T13:59:28;97325.00;;;30.20
19040;BMP180;9652;49.014;12.052;2023-07-28T14:01:55;97326.00;;;30.30
19040;BMP180;9652;49.014;12.052;2023-07-28T14:04:24;97335.00;;;30.30
19040;BMP180;9652;49.014;12.052;2023-07-28T14:06:51;97336.00;;;30.40
19040;BMP180;9652;49.014;12.052;2023-07-28T14:09:18;97330.00;;;30.40
19040;BMP180;9652;49.014;12.052;2023-07-28T14:11:45;97340.00;;;30.40
19040;BMP180;9652;49.014;12.052;2023-07-28T14:14:13;97346.00;;;30.40
19040;BMP180;9652;49.014;12.052;2023-07-28T14:16:41;97341.00;;;30.30
19040;BMP180;9652;49.014;12.052;2023-07-28T14:19:08;97345.00;;;30.40